sensor_id;sensor_type;location;lat;lon;timestamp;P1;durP1;ratioP1;P2;durP2;ratioP2
75589;SDS011;64169;47.240;11.312;2023-05-19T00:01:35;7.68;;;3.42;;
75589;SDS011;64169;47.240;11.312;2023-05-19T00:04:01;7.80;;;3.47;;
75589;SDS011;64169;47.240;11.312;2023-05-19T00:06:30;8.60;;;3.63;;
75589;SDS011;64169;47.240;11.312;2023-05-19T00:09:03;9.82;;;3.40;;
75589;SDS011;64169;47.240;11.312;2023-05-19T00:11:29;8.20;;;3.35;;
75589;SDS011;64169;47.240;11.312;2023-05-19T00:13:56;7.72;;;3.22;;
75589;SDS011;64169;47.240;11.312;2023-05-19T00:16:23;7.43;;;3.20;;
75589;SDS011;64169;47.240;11.312;2023-05-19T00:18:49;8.32;;;3.67;;
75589;SDS011;64169;47.240;11.312;2023-05-19T00:21:15;6.93;;;3.00;;
75589;SDS011;64169;47.240;11.312;2023-05-19T00:23:41;6.18;;;2.88;;
75589;SDS011;64169;47.240;11.312;2023-05-19T00:26:07;7.13;;;2.85;;
75589;SDS011;64169;47.240;11.312;2023-05-19T00:28:32;9.55;;;3.38;;
75589;SDS011;64169;47.240;11.312;2023-05-19T00:30:58;6.30;;;3.42;;
75589;SDS011;64169;47.240;11.312;2023-05-19T00:33:25;6.35;;;3.40;;
75589;SDS011;64169;47.240;11.312;2023-05-19T00:35:50;7.10;;;3.47;;
75589;SDS011;64169;47.240;11.312;2023-05-19T00:38:15;8.45;;;3.53;;
75589;SDS011;64169;47.240;11.312;2023-05-19T00:40:41;8.95;;;3.20;;
75589;SDS011;64169;47.240;11.312;2023-05-19T00:43:06;7.25;;;3.05;;
75589;SDS011;64169;47.240;11.312;2023-05-19T00:45:34;9.45;;;3.67;;
75589;SDS011;64169;47.240;11.312;2023-05-19T00:48:00;6.53;;;2.70;;
75589;SDS011;64169;47.240;11.312;2023-05-19T00:50:25;7.38;;;3.60;;
75589;SDS011;64169;47.240;11.312;2023-05-19T00:52:52;8.45;;;3.15;;
75589;SDS011;64169;47.240;11.312;2023-05-19T00:55:19;8.57;;;3.30;;
75589;SDS011;64169;47.240;11.312;2023-05-19T00:57:46;7.82;;;3.33;;
75589;SDS011;64169;47.240;11.312;2023-05-19T01:00:13;9.35;;;3.22;;
75589;SDS011;64169;47.240;11.312;2023-05-19T01:02:39;6.30;;;3.28;;
75589;SDS011;64169;47.240;11.312;2023-05-19T01:05:05;6.63;;;3.17;;
75589;SDS011;64169;47.240;11.312;2023-05-19T01:07:31;6.75;;;3.33;;
75589;SDS011;64169;47.240;11.312;2023-05-19T01:09:57;9.68;;;3.53;;
75589;SDS011;64169;47.240;11.312;2023-05-19T01:12:22;7.65;;;3.10;;
75589;SDS011;64169;47.240;11.312;2023-05-19T01:14:48;8.88;;;3.53;;
75589;SDS011;64169;47.240;11.312;2023-05-19T01:17:18;7.40;;;3.30;;
75589;SDS011;64169;47.240;11.312;2023-05-19T01:20:23;8.85;;;3.47;;
75589;SDS011;64169;47.240;11.312;2023-05-19T01:25:47;7.40;;;3.50;;
75589;SDS011;64169;47.240;11.312;2023-05-19T01:31:36;9.05;;;3.50;;
75589;SDS011;64169;47.240;11.312;2023-05-19T01:34:03;7.55;;;3.30;;
75589;SDS011;64169;47.240;11.312;2023-05-19T01:36:30;8.55;;;3.53;;
75589;SDS011;64169;47.240;11.312;2023-05-19T01:38:57;7.55;;;3.70;;
75589;SDS011;64169;47.240;11.312;2023-05-19T01:41:23;8.75;;;3.30;;
75589;SDS011;64169;47.240;11.312;2023-05-19T01:43:50;6.75;;;3.38;;
75589;SDS011;64169;47.240;11.312;2023-05-19T01:46:16;6.57;;;2.95;;
75589;SDS011;64169;47.240;11.312;2023-05-19T01:48:44;6.97;;;3.00;;
75589;SDS011;64169;47.240;11.312;2023-05-19T01:51:10;7.00;;;3.22;;
75589;SDS011;64169;47.240;11.312;2023-05-19T01:53:36;8.55;;;3.42;;
75589;SDS011;64169;47.240;11.312;2023-05-19T01:56:01;6.95;;;3.35;;
75589;SDS011;64169;47.240;11.312;2023-05-19T02:01:22;8.85;;;3.45;;
75589;SDS011;64169;47.240;11.312;2023-05-19T02:11:53;7.70;;;3.22;;
75589;SDS011;64169;47.240;11.312;2023-05-19T02:16:59;7.60;;;3.67;;
75589;SDS011;64169;47.240;11.312;2023-05-19T02:19:26;6.55;;;3.75;;
75589;SDS011;64169;47.240;11.312;2023-05-19T02:21:53;10.38;;;4.10;;
75589;SDS011;64169;47.240;11.312;2023-05-19T02:24:18;8.68;;;3.42;;
75589;SDS011;64169;47.240;11.312;2023-05-19T02:26:46;7.28;;;3.75;;
75589;SDS011;64169;47.240;11.312;2023-05-19T02:29:12;7.38;;;4.00;;
75589;SDS011;64169;47.240;11.312;2023-05-19T02:31:38;7.78;;;3.58;;
75589;SDS011;64169;47.240;11.312;2023-05-19T02:34:03;8.20;;;3.40;;
75589;SDS011;64169;47.240;11.312;2023-05-19T02:36:30;7.03;;;3.47;;
75589;SDS011;64169;47.240;11.312;2023-05-19T02:38:59;9.77;;;3.70;;
75589;SDS011;64169;47.240;11.312;2023-05-19T02:41:26;13.77;;;4.32;;
75589;SDS011;64169;47.240;11.312;2023-05-19T02:43:51;10.25;;;3.78;;
75589;SDS011;64169;47.240;11.312;2023-05-19T02:46:17;8.30;;;3.97;;
75589;SDS011;64169;47.240;11.312;2023-05-19T02:48:42;6.90;;;3.42;;
75589;SDS011;64169;47.240;11.312;2023-05-19T02:51:08;7.13;;;3.28;;
75589;SDS011;64169;47.240;11.312;2023-05-19T02:53:33;7.78;;;3.22;;
75589;SDS011;64169;47.240;11.312;2023-05-19T02:55:58;8.02;;;3.65;;
75589;SDS011;64169;47.240;11.312;2023-05-19T02:58:24;8.27;;;3.85;;
75589;SDS011;64169;47.240;11.312;2023-05-19T03:00:50;8.02;;;3.85;;
75589;SDS011;64169;47.240;11.312;2023-05-19T03:03:15;8.13;;;3.30;;
75589;SDS011;64169;47.240;11.312;2023-05-19T03:05:41;7.63;;;4.18;;
75589;SDS011;64169;47.240;11.312;2023-05-19T03:08:07;7.47;;;3.53;;
75589;SDS011;64169;47.240;11.312;2023-05-19T03:10:33;10.18;;;3.78;;
75589;SDS011;64169;47.240;11.312;2023-05-19T03:12:59;7.95;;;3.45;;
75589;SDS011;64169;47.240;11.312;2023-05-19T03:15:24;7.65;;;3.40;;
75589;SDS011;64169;47.240;11.312;2023-05-19T03:17:50;7.63;;;3.97;;
75589;SDS011;64169;47.240;11.312;2023-05-19T03:20:16;9.18;;;3.67;;
75589;SDS011;64169;47.240;11.312;2023-05-19T03:22:41;8.55;;;4.38;;
75589;SDS011;64169;47.240;11.312;2023-05-19T03:25:07;7.78;;;3.63;;
75589;SDS011;64169;47.240;11.312;2023-05-19T03:27:33;7.88;;;3.63;;
75589;SDS011;64169;47.240;11.312;2023-05-19T03:29:58;7.45;;;3.50;;
75589;SDS011;64169;47.240;11.312;2023-05-19T03:32:24;7.18;;;4.00;;
75589;SDS011;64169;47.240;11.312;2023-05-19T03:34:49;8.70;;;4.32;;
75589;SDS011;64169;47.240;11.312;2023-05-19T03:37:15;7.60;;;3.95;;
75589;SDS011;64169;47.240;11.312;2023-05-19T03:39:40;9.00;;;3.83;;
75589;SDS011;64169;47.240;11.312;2023-05-19T03:42:05;7.85;;;3.58;;
75589;SDS011;64169;47.240;11.312;2023-05-19T03:44:31;8.77;;;3.72;;
75589;SDS011;64169;47.240;11.312;2023-05-19T03:46:56;8.38;;;3.95;;
75589;SDS011;64169;47.240;11.312;2023-05-19T03:49:22;9.50;;;3.90;;
75589;SDS011;64169;47.240;11.312;2023-05-19T03:51:47;11.70;;;3.92;;
75589;SDS011;64169;47.240;11.312;2023-05-19T03:54:12;9.65;;;3.83;;
75589;SDS011;64169;47.240;11.312;2023-05-19T03:56:38;10.50;;;4.13;;
75589;SDS011;64169;47.240;11.312;2023-05-19T03:59:05;6.93;;;3.58;;
75589;SDS011;64169;47.240;11.312;2023-05-19T04:01:32;9.52;;;3.60;;
75589;SDS011;64169;47.240;11.312;2023-05-19T04:03:58;8.30;;;4.05;;
75589;SDS011;64169;47.240;11.312;2023-05-19T04:06:23;9.27;;;4.10;;
75589;SDS011;64169;47.240;11.312;2023-05-19T04:08:49;8.93;;;3.58;;
75589;SDS011;64169;47.240;11.312;2023-05-19T04:11:14;7.35;;;3.88;;
75589;SDS011;64169;47.240;11.312;2023-05-19T04:13:40;7.00;;;3.20;;
75589;SDS011;64169;47.240;11.312;2023-05-19T04:16:05;8.65;;;4.13;;
75589;SDS011;64169;47.240;11.312;2023-05-19T04:18:31;10.45;;;3.70;;
75589;SDS011;64169;47.240;11.312;2023-05-19T04:20:57;7.60;;;3.30;;
75589;SDS011;64169;47.240;11.312;2023-05-19T04:23:22;11.00;;;4.25;;
75589;SDS011;64169;47.240;11.312;2023-05-19T04:25:47;10.48;;;4.45;;
75589;SDS011;64169;47.240;11.312;2023-05-19T04:28:13;8.82;;;3.95;;
75589;SDS011;64169;47.240;11.312;2023-05-19T04:30:39;8.18;;;3.80;;
75589;SDS011;64169;47.240;11.312;2023-05-19T04:33:06;10.07;;;3.45;;
75589;SDS011;64169;47.240;11.312;2023-05-19T04:35:33;8.25;;;3.78;;
75589;SDS011;64169;47.240;11.312;2023-05-19T04:37:58;11.25;;;3.75;;
75589;SDS011;64169;47.240;11.312;2023-05-19T04:40:25;7.85;;;3.40;;
75589;SDS011;64169;47.240;11.312;2023-05-19T04:42:51;8.45;;;3.25;;
75589;SDS011;64169;47.240;11.312;2023-05-19T04:45:18;7.20;;;3.53;;
75589;SDS011;64169;47.240;11.312;2023-05-19T04:47:44;6.65;;;3.28;;
75589;SDS011;64169;47.240;11.312;2023-05-19T04:50:12;8.60;;;3.83;;
75589;SDS011;64169;47.240;11.312;2023-05-19T04:52:38;6.90;;;2.78;;
75589;SDS011;64169;47.240;11.312;2023-05-19T04:55:04;7.20;;;3.83;;
75589;SDS011;64169;47.240;11.312;2023-05-19T04:57:30;7.22;;;3.35;;
75589;SDS011;64169;47.240;11.312;2023-05-19T04:59:55;7.82;;;3.30;;
75589;SDS011;64169;47.240;11.312;2023-05-19T05:02:24;6.32;;;3.33;;
75589;SDS011;64169;47.240;11.312;2023-05-19T05:04:52;7.43;;;3.33;;
75589;SDS011;64169;47.240;11.312;2023-05-19T05:07:18;8.13;;;3.47;;
75589;SDS011;64169;47.240;11.312;2023-05-19T05:09:47;7.53;;;3.88;;
75589;SDS011;64169;47.240;11.312;2023-05-19T05:12:13;9.27;;;3.30;;
75589;SDS011;64169;47.240;11.312;2023-05-19T05:14:39;7.45;;;3.20;;
75589;SDS011;64169;47.240;11.312;2023-05-19T05:17:05;11.07;;;4.18;;
75589;SDS011;64169;47.240;11.312;2023-05-19T05:19:32;8.70;;;3.80;;
75589;SDS011;64169;47.240;11.312;2023-05-19T05:21:58;7.72;;;3.22;;
75589;SDS011;64169;47.240;11.312;2023-05-19T05:24:23;7.40;;;3.80;;
75589;SDS011;64169;47.240;11.312;2023-05-19T05:26:49;7.07;;;3.28;;
75589;SDS011;64169;47.240;11.312;2023-05-19T05:29:15;9.20;;;3.97;;
75589;SDS011;64169;47.240;11.312;2023-05-19T05:31:40;7.55;;;3.40;;
75589;SDS011;64169;47.240;11.312;2023-05-19T05:34:06;7.85;;;4.22;;
75589;SDS011;64169;47.240;11.312;2023-05-19T05:36:31;10.00;;;3.83;;
75589;SDS011;64169;47.240;11.312;2023-05-19T05:38:58;6.45;;;3.70;;
75589;SDS011;64169;47.240;11.312;2023-05-19T05:41:26;9.63;;;3.88;;
75589;SDS011;64169;47.240;11.312;2023-05-19T05:43:53;9.65;;;3.78;;
75589;SDS011;64169;47.240;11.312;2023-05-19T05:46:18;8.70;;;4.05;;
75589;SDS011;64169;47.240;11.312;2023-05-19T05:48:44;6.63;;;3.45;;
75589;SDS011;64169;47.240;11.312;2023-05-19T05:51:10;8.60;;;3.53;;
75589;SDS011;64169;47.240;11.312;2023-05-19T05:53:37;9.60;;;3.50;;
75589;SDS011;64169;47.240;11.312;2023-05-19T05:58:32;6.50;;;3.38;;
75589;SDS011;64169;47.240;11.312;2023-05-19T06:00:58;11.52;;;4.00;;
75589;SDS011;64169;47.240;11.312;2023-05-19T06:03:26;7.97;;;4.53;;
75589;SDS011;64169;47.240;11.312;2023-05-19T06:05:51;7.30;;;3.63;;
75589;SDS011;64169;47.240;11.312;2023-05-19T06:08:16;7.70;;;3.83;;
75589;SDS011;64169;47.240;11.312;2023-05-19T06:10:42;10.95;;;4.38;;
75589;SDS011;64169;47.240;11.312;2023-05-19T06:13:07;8.45;;;3.50;;
75589;SDS011;64169;47.240;11.312;2023-05-19T06:15:33;8.40;;;3.33;;
75589;SDS011;64169;47.240;11.312;2023-05-19T06:18:00;7.05;;;3.33;;
75589;SDS011;64169;47.240;11.312;2023-05-19T06:20:26;8.75;;;3.30;;
75589;SDS011;64169;47.240;11.312;2023-05-19T06:22:51;9.50;;;3.83;;
75589;SDS011;64169;47.240;11.312;2023-05-19T06:25:16;9.50;;;3.33;;
75589;SDS011;64169;47.240;11.312;2023-05-19T06:27:42;8.65;;;3.80;;
75589;SDS011;64169;47.240;11.312;2023-05-19T06:30:08;7.45;;;3.63;;
75589;SDS011;64169;47.240;11.312;2023-05-19T06:32:33;7.20;;;3.58;;
75589;SDS011;64169;47.240;11.312;2023-05-19T06:34:59;8.05;;;4.05;;
75589;SDS011;64169;47.240;11.312;2023-05-19T06:37:24;8.80;;;3.20;;
75589;SDS011;64169;47.240;11.312;2023-05-19T06:39:51;7.85;;;3.92;;
75589;SDS011;64169;47.240;11.312;2023-05-19T06:42:20;8.43;;;3.42;;
75589;SDS011;64169;47.240;11.312;2023-05-19T06:44:49;7.22;;;3.80;;
75589;SDS011;64169;47.240;11.312;2023-05-19T06:47:15;8.65;;;3.40;;
75589;SDS011;64169;47.240;11.312;2023-05-19T06:49:41;9.43;;;3.70;;
75589;SDS011;64169;47.240;11.312;2023-05-19T06:52:08;8.35;;;3.13;;
75589;SDS011;64169;47.240;11.312;2023-05-19T06:54:33;6.70;;;2.92;;
75589;SDS011;64169;47.240;11.312;2023-05-19T06:56:59;8.15;;;3.90;;
75589;SDS011;64169;47.240;11.312;2023-05-19T06:59:24;7.82;;;3.20;;
75589;SDS011;64169;47.240;11.312;2023-05-19T07:01:49;7.07;;;3.15;;
75589;SDS011;64169;47.240;11.312;2023-05-19T07:04:15;9.75;;;3.53;;
75589;SDS011;64169;47.240;11.312;2023-05-19T07:06:40;6.80;;;3.33;;
75589;SDS011;64169;47.240;11.312;2023-05-19T07:09:06;7.45;;;3.30;;
75589;SDS011;64169;47.240;11.312;2023-05-19T07:11:33;10.15;;;3.65;;
75589;SDS011;64169;47.240;11.312;2023-05-19T07:13:58;7.57;;;2.78;;
75589;SDS011;64169;47.240;11.312;2023-05-19T07:16:24;7.95;;;3.22;;
75589;SDS011;64169;47.240;11.312;2023-05-19T07:18:49;7.40;;;3.15;;
75589;SDS011;64169;47.240;11.312;2023-05-19T07:21:15;8.32;;;2.95;;
75589;SDS011;64169;47.240;11.312;2023-05-19T07:23:41;6.43;;;3.22;;
75589;SDS011;64169;47.240;11.312;2023-05-19T07:26:06;8.70;;;3.70;;
75589;SDS011;64169;47.240;11.312;2023-05-19T07:28:31;7.93;;;3.08;;
75589;SDS011;64169;47.240;11.312;2023-05-19T07:30:58;7.18;;;3.22;;
75589;SDS011;64169;47.240;11.312;2023-05-19T07:33:24;8.30;;;3.38;;
75589;SDS011;64169;47.240;11.312;2023-05-19T07:35:51;6.47;;;3.10;;
75589;SDS011;64169;47.240;11.312;2023-05-19T07:38:16;6.65;;;3.03;;
75589;SDS011;64169;47.240;11.312;2023-05-19T07:40:42;6.93;;;3.45;;
75589;SDS011;64169;47.240;11.312;2023-05-19T07:43:07;7.50;;;2.88;;
75589;SDS011;64169;47.240;11.312;2023-05-19T07:45:33;10.48;;;3.60;;
75589;SDS011;64169;47.240;11.312;2023-05-19T07:47:58;8.48;;;3.67;;
75589;SDS011;64169;47.240;11.312;2023-05-19T07:50:23;8.48;;;4.50;;
75589;SDS011;64169;47.240;11.312;2023-05-19T07:52:49;9.57;;;3.78;;
75589;SDS011;64169;47.240;11.312;2023-05-19T07:55:15;6.53;;;3.13;;
75589;SDS011;64169;47.240;11.312;2023-05-19T07:57:41;9.77;;;3.17;;
75589;SDS011;64169;47.240;11.312;2023-05-19T08:00:07;7.72;;;3.45;;
75589;SDS011;64169;47.240;11.312;2023-05-19T08:02:36;7.18;;;3.25;;
75589;SDS011;64169;47.240;11.312;2023-05-19T08:05:01;6.60;;;3.33;;
75589;SDS011;64169;47.240;11.312;2023-05-19T08:07:27;7.13;;;3.20;;
75589;SDS011;64169;47.240;11.312;2023-05-19T08:09:52;8.15;;;3.25;;
75589;SDS011;64169;47.240;11.312;2023-05-19T08:12:18;6.07;;;2.67;;
75589;SDS011;64169;47.240;11.312;2023-05-19T08:14:43;7.57;;;3.20;;
75589;SDS011;64169;47.240;11.312;2023-05-19T08:17:09;7.07;;;3.00;;
75589;SDS011;64169;47.240;11.312;2023-05-19T08:19:35;6.68;;;3.08;;
75589;SDS011;64169;47.240;11.312;2023-05-19T08:22:00;7.72;;;3.10;;
75589;SDS011;64169;47.240;11.312;2023-05-19T08:24:26;6.65;;;2.63;;
75589;SDS011;64169;47.240;11.312;2023-05-19T08:26:56;6.63;;;2.80;;
75589;SDS011;64169;47.240;11.312;2023-05-19T08:29:22;5.50;;;2.55;;
75589;SDS011;64169;47.240;11.312;2023-05-19T08:31:47;6.28;;;3.22;;
75589;SDS011;64169;47.240;11.312;2023-05-19T08:34:13;7.93;;;3.22;;
75589;SDS011;64169;47.240;11.312;2023-05-19T08:36:38;7.20;;;3.20;;
75589;SDS011;64169;47.240;11.312;2023-05-19T08:39:04;6.28;;;2.88;;
75589;SDS011;64169;47.240;11.312;2023-05-19T08:41:30;9.75;;;3.75;;
75589;SDS011;64169;47.240;11.312;2023-05-19T08:43:56;8.70;;;3.22;;
75589;SDS011;64169;47.240;11.312;2023-05-19T08:46:22;7.20;;;2.70;;
75589;SDS011;64169;47.240;11.312;2023-05-19T08:48:49;6.22;;;2.97;;
75589;SDS011;64169;47.240;11.312;2023-05-19T08:53:58;7.72;;;3.38;;
75589;SDS011;64169;47.240;11.312;2023-05-19T08:56:27;8.07;;;2.97;;
75589;SDS011;64169;47.240;11.312;2023-05-19T08:58:52;7.10;;;2.80;;
75589;SDS011;64169;47.240;11.312;2023-05-19T09:01:20;9.48;;;3.10;;
75589;SDS011;64169;47.240;11.312;2023-05-19T09:03:46;7.55;;;2.63;;
75589;SDS011;64169;47.240;11.312;2023-05-19T09:06:13;9.05;;;3.22;;
75589;SDS011;64169;47.240;11.312;2023-05-19T09:08:39;7.03;;;3.08;;
75589;SDS011;64169;47.240;11.312;2023-05-19T09:11:06;8.98;;;3.60;;
75589;SDS011;64169;47.240;11.312;2023-05-19T09:13:32;8.77;;;3.35;;
75589;SDS011;64169;47.240;11.312;2023-05-19T09:15:58;6.68;;;2.22;;
75589;SDS011;64169;47.240;11.312;2023-05-19T09:18:24;6.50;;;2.55;;
75589;SDS011;64169;47.240;11.312;2023-05-19T09:20:50;6.18;;;2.40;;
75589;SDS011;64169;47.240;11.312;2023-05-19T09:23:25;7.28;;;2.92;;
75589;SDS011;64169;47.240;11.312;2023-05-19T09:25:55;7.78;;;2.78;;
75589;SDS011;64169;47.240;11.312;2023-05-19T09:28:25;11.20;;;3.33;;
75589;SDS011;64169;47.240;11.312;2023-05-19T09:31:04;6.40;;;2.40;;
75589;SDS011;64169;47.240;11.312;2023-05-19T09:33:34;7.28;;;3.05;;
75589;SDS011;64169;47.240;11.312;2023-05-19T09:36:04;6.75;;;2.35;;
75589;SDS011;64169;47.240;11.312;2023-05-19T09:38:32;5.60;;;2.40;;
75589;SDS011;64169;47.240;11.312;2023-05-19T09:40:59;6.75;;;2.78;;
75589;SDS011;64169;47.240;11.312;2023-05-19T09:43:28;6.43;;;3.10;;
75589;SDS011;64169;47.240;11.312;2023-05-19T09:48:30;5.35;;;2.17;;
75589;SDS011;64169;47.240;11.312;2023-05-19T09:50:56;7.13;;;2.90;;
75589;SDS011;64169;47.240;11.312;2023-05-19T09:53:22;7.53;;;2.63;;
75589;SDS011;64169;47.240;11.312;2023-05-19T09:55:49;6.00;;;2.58;;
75589;SDS011;64169;47.240;11.312;2023-05-19T09:58:18;6.07;;;2.85;;
75589;SDS011;64169;47.240;11.312;2023-05-19T10:00:45;7.50;;;2.85;;
75589;SDS011;64169;47.240;11.312;2023-05-19T10:03:11;7.90;;;3.05;;
75589;SDS011;64169;47.240;11.312;2023-05-19T10:05:37;5.95;;;2.45;;
75589;SDS011;64169;47.240;11.312;2023-05-19T10:08:04;6.38;;;2.47;;
75589;SDS011;64169;47.240;11.312;2023-05-19T10:10:31;5.60;;;2.58;;
75589;SDS011;64169;47.240;11.312;2023-05-19T10:12:57;9.48;;;3.05;;
75589;SDS011;64169;47.240;11.312;2023-05-19T10:15:23;5.38;;;2.75;;
75589;SDS011;64169;47.240;11.312;2023-05-19T10:17:49;7.40;;;3.03;;
75589;SDS011;64169;47.240;11.312;2023-05-19T10:20:15;6.95;;;3.25;;
75589;SDS011;64169;47.240;11.312;2023-05-19T10:22:41;5.88;;;2.50;;
75589;SDS011;64169;47.240;11.312;2023-05-19T10:25:08;6.65;;;2.72;;
75589;SDS011;64169;47.240;11.312;2023-05-19T10:27:36;6.63;;;2.63;;
75589;SDS011;64169;47.240;11.312;2023-05-19T10:30:06;6.43;;;2.72;;
75589;SDS011;64169;47.240;11.312;2023-05-19T10:32:34;7.70;;;2.60;;
75589;SDS011;64169;47.240;11.312;2023-05-19T10:40:25;5.47;;;2.00;;
75589;SDS011;64169;47.240;11.312;2023-05-19T10:43:08;5.93;;;2.50;;
75589;SDS011;64169;47.240;11.312;2023-05-19T10:48:21;6.50;;;2.50;;
75589;SDS011;64169;47.240;11.312;2023-05-19T10:50:48;5.55;;;2.40;;
75589;SDS011;64169;47.240;11.312;2023-05-19T10:53:17;5.82;;;2.40;;
75589;SDS011;64169;47.240;11.312;2023-05-19T10:55:49;5.88;;;2.15;;
75589;SDS011;64169;47.240;11.312;2023-05-19T10:58:36;7.80;;;2.83;;
75589;SDS011;64169;47.240;11.312;2023-05-19T11:01:12;5.32;;;2.15;;
75589;SDS011;64169;47.240;11.312;2023-05-19T11:03:48;6.65;;;2.05;;
75589;SDS011;64169;47.240;11.312;2023-05-19T11:06:25;5.43;;;2.08;;
75589;SDS011;64169;47.240;11.312;2023-05-19T11:08:58;5.70;;;2.40;;
75589;SDS011;64169;47.240;11.312;2023-05-19T11:11:25;5.43;;;2.13;;
75589;SDS011;64169;47.240;11.312;2023-05-19T11:13:54;6.25;;;2.55;;
75589;SDS011;64169;47.240;11.312;2023-05-19T11:16:33;5.28;;;2.45;;
75589;SDS011;64169;47.240;11.312;2023-05-19T11:18:58;5.20;;;2.30;;
75589;SDS011;64169;47.240;11.312;2023-05-19T11:21:39;7.28;;;2.75;;
75589;SDS011;64169;47.240;11.312;2023-05-19T11:24:08;5.55;;;2.00;;
75589;SDS011;64169;47.240;11.312;2023-05-19T11:26:40;6.72;;;2.28;;
75589;SDS011;64169;47.240;11.312;2023-05-19T11:29:07;5.75;;;2.25;;
75589;SDS011;64169;47.240;11.312;2023-05-19T11:31:33;5.50;;;2.53;;
75589;SDS011;64169;47.240;11.312;2023-05-19T11:34:00;4.90;;;2.25;;
75589;SDS011;64169;47.240;11.312;2023-05-19T11:36:26;5.45;;;2.38;;
75589;SDS011;64169;47.240;11.312;2023-05-19T11:38:53;4.97;;;2.30;;
75589;SDS011;64169;47.240;11.312;2023-05-19T11:41:19;6.28;;;2.67;;
75589;SDS011;64169;47.240;11.312;2023-05-19T11:43:46;7.85;;;2.35;;
75589;SDS011;64169;47.240;11.312;2023-05-19T11:46:11;13.80;;;3.25;;
75589;SDS011;64169;47.240;11.312;2023-05-19T11:48:37;6.95;;;2.90;;
75589;SDS011;64169;47.240;11.312;2023-05-19T11:51:04;4.43;;;1.83;;
75589;SDS011;64169;47.240;11.312;2023-05-19T11:53:30;5.55;;;1.90;;
75589;SDS011;64169;47.240;11.312;2023-05-19T11:55:56;5.38;;;2.38;;
75589;SDS011;64169;47.240;11.312;2023-05-19T11:58:27;5.72;;;2.42;;
75589;SDS011;64169;47.240;11.312;2023-05-19T12:00:52;5.25;;;2.17;;
75589;SDS011;64169;47.240;11.312;2023-05-19T12:03:20;5.15;;;2.13;;
75589;SDS011;64169;47.240;11.312;2023-05-19T12:05:46;5.35;;;2.38;;
75589;SDS011;64169;47.240;11.312;2023-05-19T12:08:12;7.03;;;2.42;;
75589;SDS011;64169;47.240;11.312;2023-05-19T12:10:38;5.30;;;1.98;;
75589;SDS011;64169;47.240;11.312;2023-05-19T12:13:04;5.18;;;2.03;;
75589;SDS011;64169;47.240;11.312;2023-05-19T12:15:32;5.65;;;2.05;;
75589;SDS011;64169;47.240;11.312;2023-05-19T12:18:01;5.72;;;2.03;;
75589;SDS011;64169;47.240;11.312;2023-05-19T12:20:27;5.93;;;2.30;;
75589;SDS011;64169;47.240;11.312;2023-05-19T12:22:56;5.38;;;2.30;;
75589;SDS011;64169;47.240;11.312;2023-05-19T12:25:22;6.43;;;2.35;;
75589;SDS011;64169;47.240;11.312;2023-05-19T12:27:48;7.13;;;2.00;;
75589;SDS011;64169;47.240;11.312;2023-05-19T12:30:15;5.63;;;2.40;;
75589;SDS011;64169;47.240;11.312;2023-05-19T12:32:40;6.05;;;2.00;;
75589;SDS011;64169;47.240;11.312;2023-05-19T12:35:07;5.68;;;2.10;;
75589;SDS011;64169;47.240;11.312;2023-05-19T12:37:33;5.40;;;2.08;;
75589;SDS011;64169;47.240;11.312;2023-05-19T12:39:59;6.30;;;2.17;;
75589;SDS011;64169;47.240;11.312;2023-05-19T12:42:28;6.10;;;2.08;;
75589;SDS011;64169;47.240;11.312;2023-05-19T12:44:58;6.18;;;1.70;;
75589;SDS011;64169;47.240;11.312;2023-05-19T12:47:33;4.72;;;2.17;;
75589;SDS011;64169;47.240;11.312;2023-05-19T12:52:29;6.00;;;1.77;;
75589;SDS011;64169;47.240;11.312;2023-05-19T12:57:28;6.82;;;1.92;;
75589;SDS011;64169;47.240;11.312;2023-05-19T13:00:03;5.70;;;2.40;;
75589;SDS011;64169;47.240;11.312;2023-05-19T13:02:35;5.20;;;1.67;;
75589;SDS011;64169;47.240;11.312;2023-05-19T13:05:06;5.28;;;1.50;;
75589;SDS011;64169;47.240;11.312;2023-05-19T13:07:32;5.85;;;1.70;;
75589;SDS011;64169;47.240;11.312;2023-05-19T13:09:59;4.97;;;1.38;;
75589;SDS011;64169;47.240;11.312;2023-05-19T13:12:25;4.65;;;1.50;;
75589;SDS011;64169;47.240;11.312;2023-05-19T13:14:50;4.82;;;2.00;;
75589;SDS011;64169;47.240;11.312;2023-05-19T13:17:15;4.25;;;1.50;;
75589;SDS011;64169;47.240;11.312;2023-05-19T13:19:41;3.55;;;1.02;;
75589;SDS011;64169;47.240;11.312;2023-05-19T13:22:06;5.10;;;1.58;;
75589;SDS011;64169;47.240;11.312;2023-05-19T13:24:32;4.47;;;1.90;;
75589;SDS011;64169;47.240;11.312;2023-05-19T13:26:57;5.00;;;1.30;;
75589;SDS011;64169;47.240;11.312;2023-05-19T13:29:22;3.60;;;1.30;;
75589;SDS011;64169;47.240;11.312;2023-05-19T13:31:48;3.78;;;1.10;;
75589;SDS011;64169;47.240;11.312;2023-05-19T13:34:13;4.45;;;1.70;;
75589;SDS011;64169;47.240;11.312;2023-05-19T13:36:39;3.92;;;1.20;;
75589;SDS011;64169;47.240;11.312;2023-05-19T13:39:05;3.78;;;1.42;;
75589;SDS011;64169;47.240;11.312;2023-05-19T13:41:30;3.70;;;1.33;;
75589;SDS011;64169;47.240;11.312;2023-05-19T13:43:56;4.00;;;1.50;;
75589;SDS011;64169;47.240;11.312;2023-05-19T13:46:23;3.70;;;1.30;;
75589;SDS011;64169;47.240;11.312;2023-05-19T13:48:48;3.70;;;1.15;;
75589;SDS011;64169;47.240;11.312;2023-05-19T13:51:14;4.10;;;1.38;;
75589;SDS011;64169;47.240;11.312;2023-05-19T13:53:39;4.13;;;1.40;;
75589;SDS011;64169;47.240;11.312;2023-05-19T13:56:05;3.92;;;1.60;;
75589;SDS011;64169;47.240;11.312;2023-05-19T13:58:30;4.75;;;1.60;;
75589;SDS011;64169;47.240;11.312;2023-05-19T14:00:56;3.53;;;1.35;;
75589;SDS011;64169;47.240;11.312;2023-05-19T14:03:23;3.90;;;1.33;;
75589;SDS011;64169;47.240;11.312;2023-05-19T14:05:50;4.72;;;1.55;;
75589;SDS011;64169;47.240;11.312;2023-05-19T14:08:16;4.18;;;1.48;;
75589;SDS011;64169;47.240;11.312;2023-05-19T14:10:42;4.20;;;1.85;;
75589;SDS011;64169;47.240;11.312;2023-05-19T14:13:07;4.90;;;1.90;;
75589;SDS011;64169;47.240;11.312;2023-05-19T14:15:35;6.82;;;1.80;;
75589;SDS011;64169;47.240;11.312;2023-05-19T14:18:01;4.55;;;1.80;;
75589;SDS011;64169;47.240;11.312;2023-05-19T14:20:27;5.57;;;1.70;;
75589;SDS011;64169;47.240;11.312;2023-05-19T14:22:52;5.20;;;1.27;;
75589;SDS011;64169;47.240;11.312;2023-05-19T14:25:19;3.80;;;1.38;;
75589;SDS011;64169;47.240;11.312;2023-05-19T14:27:45;5.30;;;1.45;;
75589;SDS011;64169;47.240;11.312;2023-05-19T14:30:10;5.88;;;1.50;;
75589;SDS011;64169;47.240;11.312;2023-05-19T14:32:36;7.28;;;1.75;;
75589;SDS011;64169;47.240;11.312;2023-05-19T14:35:01;4.13;;;1.58;;
75589;SDS011;64169;47.240;11.312;2023-05-19T14:37:27;7.60;;;1.70;;
75589;SDS011;64169;47.240;11.312;2023-05-19T14:39:53;5.15;;;2.00;;
75589;SDS011;64169;47.240;11.312;2023-05-19T14:42:18;4.20;;;1.52;;
75589;SDS011;64169;47.240;11.312;2023-05-19T14:44:44;3.53;;;1.23;;
75589;SDS011;64169;47.240;11.312;2023-05-19T14:47:09;5.13;;;1.52;;
75589;SDS011;64169;47.240;11.312;2023-05-19T14:49:36;7.38;;;2.35;;
75589;SDS011;64169;47.240;11.312;2023-05-19T14:52:01;5.13;;;1.77;;
75589;SDS011;64169;47.240;11.312;2023-05-19T14:54:27;5.10;;;1.83;;
75589;SDS011;64169;47.240;11.312;2023-05-19T14:56:52;4.65;;;1.52;;
75589;SDS011;64169;47.240;11.312;2023-05-19T14:59:18;5.57;;;1.60;;
75589;SDS011;64169;47.240;11.312;2023-05-19T15:01:43;14.30;;;3.67;;
75589;SDS011;64169;47.240;11.312;2023-05-19T15:04:08;3.58;;;1.40;;
75589;SDS011;64169;47.240;11.312;2023-05-19T15:06:34;5.57;;;1.50;;
75589;SDS011;64169;47.240;11.312;2023-05-19T15:08:59;4.03;;;1.48;;
75589;SDS011;64169;47.240;11.312;2023-05-19T15:11:25;8.68;;;2.03;;